Time,TemperatureF,DewpointF,PressureIn,WindDirection,WindDirectionDegrees,WindSpeedMPH,WindSpeedGustMPH,Humidity,HourlyPrecipIn,Conditions,Clouds,dailyrainin,SoftwareType,DateUTC
2013-04-01 00:04:00,31.0,28.0,29.78,NNW,331,19.0,-999.0,89,-99.99,,,0.00,weatherlink.com 1.10,2013-04-01 04:04:00,
2013-04-01 00:19:00,30.7,28.0,29.79,NW,325,11.0,-999.0,89,-99.99,,,0.00,weatherlink.com 1.10,2013-04-01 04:19:00,
2013-04-01 00:34:00,30.6,28.0,29.79,NNW,340,14.0,-999.0,88,-99.99,,,0.00,weatherlink.com 1.10,2013-04-01 04:34:00,
2013-04-01 00:49:00,30.6,27.0,29.79,NW,317,15.0,-999.0,87,-99.99,,,0.00,weatherlink.com 1.10,2013-04-01 04:49:00,
2013-04-01 01:04:00,30.1,26.0,29.80,NW,322,8.0,-999.0,86,-99.99,,,0.00,weatherlink.com 1.10,2013-04-01 05:04:00,
2013-04-01 01:19:00,29.5,26.0,29.80,NW,325,8.0,-999.0,87,-99.99,,,0.00,weatherlink.com 1.10,2013-04-01 05:19:00,
2013-04-01 01:34:00,29.1,26.0,29.81,NW,315,9.0,-999.0,87,-99.99,,,0.00,weatherlink.com 1.10,2013-04-01 05:34:00,
2013-04-01 01:49:00,29.2,25.0,29.82,NW,323,10.0,-999.0,85,-99.99,,,0.00,weatherlink.com 1.10,2013-04-01 05:49:00,
2013-04-01 02:04:00,29.3,22.0,29.83,NNW,327,12.0,-999.0,75,-99.99,,,0.00,weatherlink.com 1.10,2013-04-01 06:04:00,
2013-04-01 02:19:00,28.8,22.0,29.84,NW,323,9.0,-999.0,76,-99.99,,,0.00,weatherlink.com 1.10,2013-04-01 06:19:00,
2013-04-01 02:34:00,28.5,21.0,29.84,NNW,327,12.0,-999.0,74,-99.99,,,0.00,weatherlink.com 1.10,2013-04-01 06:34:00,
2013-04-01 02:49:00,28.2,21.0,29.85,NW,315,11.0,-999.0,75,-99.99,,,0.00,weatherlink.com 1.10,2013-04-01 06:49:00,
2013-04-01 03:04:00,27.8,21.0,29.85,NW,321,9.0,-999.0,76,-99.99,,,0.00,weatherlink.com 1.10,2013-04-01 07:04:00,
2013-04-01 03:19:00,27.6,21.0,29.85,NW,321,7.0,-999.0,76,-99.99,,,0.00,weatherlink.com 1.10,2013-04-01 07:19:00,
2013-04-01 03:34:00,27.3,21.0,29.86,WNW,298,5.0,-999.0,76,-99.99,,,0.00,weatherlink.com 1.10,2013-04-01 07:34:00,
2013-04-01 03:49:00,27.6,20.0,29.87,WNW,302,6.0,-999.0,74,-99.99,,,0.00,weatherlink.com 1.10,2013-04-01 07:49:00,
2013-04-01 04:04:00,27.8,20.0,29.87,WNW,294,9.0,-999.0,72,-99.99,,,0.00,weatherlink.com 1.10,2013-04-01 08:04:00,
2013-04-01 04:19:00,27.7,19.0,29.88,NW,313,11.0,-999.0,70,-99.99,,,0.00,weatherlink.com 1.10,2013-04-01 08:19:00,
2013-04-01 04:34:00,27.5,19.0,29.88,NNW,330,10.0,-999.0,71,-99.99,,,0.00,weatherlink.com 1.10,2013-04-01 08:34:00,
2013-04-01 04:49:00,27.5,19.0,29.88,WNW,298,9.0,-999.0,71,-99.99,,,0.00,weatherlink.com 1.10,2013-04-01 08:49:00,
2013-04-01 05:04:00,27.6,20.0,29.89,NW,305,7.0,-999.0,72,-99.99,,,0.00,weatherlink.com 1.10,2013-04-01 09:04:00,
2013-04-01 05:19:00,27.4,20.0,29.90,NW,321,7.0,-999.0,73,-99.99,,,0.00,weatherlink.com 1.10,2013-04-01 09:19:00,
2013-04-01 05:34:00,26.9,20.0,29.90,NW,323,9.0,-999.0,74,-99.99,,,0.00,weatherlink.com 1.10,2013-04-01 09:34:00,
2013-04-01 05:49:00,26.8,19.0,29.91,WNW,303,5.0,-999.0,72,-99.99,,,0.00,weatherlink.com 1.10,2013-04-01 09:49:00,
2013-04-01 06:04:00,26.4,18.0,29.91,WNW,300,9.0,-999.0,71,-99.99,,,0.00,weatherlink.com 1.10,2013-04-01 10:04:00,
2013-04-01 06:19:00,26.7,18.0,29.92,WNW,299,12.0,-999.0,69,-99.99,,,0.00,weatherlink.com 1.10,2013-04-01 10:19:00,
2013-04-01 06:34:00,26.7,17.0,29.93,NW,321,15.0,-999.0,68,-99.99,,,0.00,weatherlink.com 1.10,2013-04-01 10:34:00,
2013-04-01 06:49:00,26.7,17.0,29.94,NW,319,16.0,-999.0,66,-99.99,,,0.00,weatherlink.com 1.10,2013-04-01 10:49:00,
2013-04-01 07:04:00,26.5,18.0,29.94,NW,308,8.0,-999.0,69,-99.99,,,0.00,weatherlink.com 1.10,2013-04-01 11:04:00,
2013-04-01 07:19:00,26.5,17.0,29.95,NW,312,7.0,-999.0,68,-99.99,,,0.00,weatherlink.com 1.10,2013-04-01 11:19:00,
2013-04-01 07:34:00,25.9,17.0,29.96,NW,308,7.0,-999.0,68,-99.99,,,0.00,weatherlink.com 1.10,2013-04-01 11:34:00,
2013-04-01 07:49:00,26.3,16.0,29.97,NW,310,8.0,-999.0,64,-99.99,,,0.00,weatherlink.com 1.10,2013-04-01 11:49:00,
2013-04-01 08:04:00,26.4,16.0,29.98,NW,312,10.0,-999.0,66,-99.99,,,0.00,weatherlink.com 1.10,2013-04-01 12:04:00,
2013-04-01 08:19:00,26.7,16.0,29.98,WNW,299,12.0,-999.0,65,-99.99,,,0.00,weatherlink.com 1.10,2013-04-01 12:19:00,
2013-04-01 08:34:00,27.1,17.0,29.99,NW,305,14.0,-999.0,65,-99.99,,,0.00,weatherlink.com 1.10,2013-04-01 12:34:00,
2013-04-01 08:49:00,27.7,17.0,30.00,WNW,294,16.0,-999.0,64,-99.99,,,0.00,weatherlink.com 1.10,2013-04-01 12:49:00,
2013-04-01 09:04:00,27.9,17.0,30.00,WNW,302,7.0,-999.0,64,-99.99,,,0.00,weatherlink.com 1.10,2013-04-01 13:04:00,
2013-04-01 09:19:00,27.1,16.0,30.00,West,276,10.0,-999.0,64,-99.99,,,0.00,weatherlink.com 1.10,2013-04-01 13:19:00,
2013-04-01 09:34:00,27.1,16.0,30.01,NW,321,13.0,-999.0,64,-99.99,,,0.00,weatherlink.com 1.10,2013-04-01 13:34:00,
2013-04-01 09:49:00,27.1,16.0,30.01,WNW,289,10.0,-999.0,64,-99.99,,,0.00,weatherlink.com 1.10,2013-04-01 13:49:00,
2013-04-01 10:04:00,27.2,17.0,30.02,WNW,286,10.0,-999.0,66,-99.99,,,0.00,weatherlink.com 1.10,2013-04-01 14:04:00,
2013-04-01 10:19:00,27.5,15.0,30.02,WNW,290,14.0,-999.0,59,-99.99,,,0.00,weatherlink.com 1.10,2013-04-01 14:19:00,
2013-04-01 10:34:00,27.7,16.0,30.03,WNW,294,10.0,-999.0,63,-99.99,,,0.00,weatherlink.com 1.10,2013-04-01 14:34:00,
2013-04-01 10:49:00,28.4,16.0,30.03,NW,317,18.0,-999.0,59,-99.99,,,0.00,weatherlink.com 1.10,2013-04-01 14:49:00,
2013-04-01 11:04:00,28.4,16.0,30.03,WNW,292,12.0,-999.0,61,-99.99,,,0.00,weatherlink.com 1.10,2013-04-01 15:04:00,
2013-04-01 11:19:00,28.9,17.0,30.04,WNW,294,7.0,-999.0,62,-99.99,,,0.00,weatherlink.com 1.10,2013-04-01 15:19:00,
2013-04-01 11:34:00,28.7,17.0,30.04,WNW,292,14.0,-999.0,63,-99.99,,,0.00,weatherlink.com 1.10,2013-04-01 15:34:00,
2013-04-01 11:49:00,29.5,17.0,30.04,WNW,302,12.0,-999.0,60,-99.99,,,0.00,weatherlink.com 1.10,2013-04-01 15:49:00,
2013-04-01 12:04:00,29.2,17.0,30.05,NW,306,10.0,-999.0,61,-99.99,,,0.00,weatherlink.com 1.10,2013-04-01 16:04:00,
2013-04-01 12:19:00,29.2,19.0,30.05,NW,315,6.0,-999.0,65,-99.99,,,0.00,weatherlink.com 1.10,2013-04-01 16:19:00,
2013-04-01 12:34:00,31.1,19.0,30.05,West,275,19.0,-999.0,62,-99.99,,,0.00,weatherlink.com 1.10,2013-04-01 16:34:00,
2013-04-01 12:49:00,30.1,18.0,30.06,WNW,284,12.0,-999.0,61,-99.99,,,0.00,weatherlink.com 1.10,2013-04-01 16:49:00,
2013-04-01 13:04:00,29.1,19.0,30.06,West,276,7.0,-999.0,67,-99.99,,,0.00,weatherlink.com 1.10,2013-04-01 17:04:00,
2013-04-01 13:19:00,28.5,18.0,30.07,WNW,299,14.0,-999.0,65,-99.99,,,0.00,weatherlink.com 1.10,2013-04-01 17:19:00,
2013-04-01 13:34:00,29.8,18.0,30.06,WNW,295,13.0,-999.0,63,-99.99,,,0.00,weatherlink.com 1.10,2013-04-01 17:34:00,
2013-04-01 13:49:00,30.6,17.0,30.07,WNW,284,15.0,-999.0,57,-99.99,,,0.00,weatherlink.com 1.10,2013-04-01 17:49:00,
2013-04-01 14:04:00,29.6,17.0,30.07,WNW,290,18.0,-999.0,60,-99.99,,,0.00,weatherlink.com 1.10,2013-04-01 18:04:00,
2013-04-01 14:19:00,29.5,19.0,30.07,WNW,293,16.0,-999.0,64,-99.99,,,0.00,weatherlink.com 1.10,2013-04-01 18:19:00,
2013-04-01 14:49:00,29.9,19.0,30.07,NW,304,21.0,-999.0,63,-99.99,,,0.00,weatherlink.com 1.10,2013-04-01 18:49:00,
2013-04-01 15:04:00,29.6,18.0,30.07,West,267,18.0,-999.0,61,-99.99,,,0.00,weatherlink.com 1.10,2013-04-01 19:04:00,
2013-04-01 15:19:00,28.8,20.0,30.08,WNW,302,12.0,-999.0,71,-99.99,,,0.00,weatherlink.com 1.10,2013-04-01 19:19:00,
2013-04-01 15:34:00,29.8,18.0,30.08,WNW,283,18.0,-999.0,62,-99.99,,,0.00,weatherlink.com 1.10,2013-04-01 19:34:00,
2013-04-01 15:49:00,30.9,16.0,30.08,West,275,13.0,-999.0,55,-99.99,,,0.00,weatherlink.com 1.10,2013-04-01 19:49:00,
2013-04-01 16:04:00,31.1,17.0,30.08,WNW,294,12.0,-999.0,56,-99.99,,,0.00,weatherlink.com 1.10,2013-04-01 20:04:00,
2013-04-01 16:19:00,30.3,15.0,30.08,WNW,297,18.0,-999.0,54,-99.99,,,0.00,weatherlink.com 1.10,2013-04-01 20:19:00,
2013-04-01 16:34:00,31.2,18.0,30.08,WNW,286,9.0,-999.0,58,-99.99,,,0.00,weatherlink.com 1.10,2013-04-01 20:34:00,
2013-04-01 16:49:00,30.1,18.0,30.08,NW,307,13.0,-999.0,62,-99.99,,,0.00,weatherlink.com 1.10,2013-04-01 20:49:00,
2013-04-01 17:04:00,30.0,16.0,30.09,WNW,296,13.0,-999.0,56,-99.99,,,0.00,weatherlink.com 1.10,2013-04-01 21:04:00,
2013-04-01 17:19:00,30.4,16.0,30.09,West,265,13.0,-999.0,55,-99.99,,,0.00,weatherlink.com 1.10,2013-04-01 21:19:00,
2013-04-01 17:34:00,30.6,16.0,30.09,WNW,295,10.0,-999.0,54,-99.99,,,0.00,weatherlink.com 1.10,2013-04-01 21:34:00,
2013-04-01 17:50:00,29.5,16.0,30.09,WNW,301,14.0,-999.0,58,-99.99,,,0.00,weatherlink.com 1.10,2013-04-01 21:50:00,
2013-04-01 18:04:00,29.5,17.0,30.09,NW,307,11.0,-999.0,60,-99.99,,,0.00,weatherlink.com 1.10,2013-04-01 22:04:00,
2013-04-01 18:19:00,28.8,18.0,30.10,West,278,10.0,-999.0,63,-99.99,,,0.00,weatherlink.com 1.10,2013-04-01 22:19:00,
2013-04-01 18:34:00,28.8,15.0,30.10,WNW,296,9.0,-999.0,56,-99.99,,,0.00,weatherlink.com 1.10,2013-04-01 22:34:00,
2013-04-01 18:49:00,29.2,14.0,30.10,West,281,14.0,-999.0,54,-99.99,,,0.00,weatherlink.com 1.10,2013-04-01 22:49:00,
2013-04-01 19:04:00,29.1,15.0,30.10,NW,304,7.0,-999.0,55,-99.99,,,0.00,weatherlink.com 1.10,2013-04-01 23:04:00,
2013-04-01 19:19:00,28.7,14.0,30.10,WNW,288,10.0,-999.0,54,-99.99,,,0.00,weatherlink.com 1.10,2013-04-01 23:19:00,
2013-04-01 19:34:00,28.8,14.0,30.10,WNW,298,6.0,-999.0,55,-99.99,,,0.00,weatherlink.com 1.10,2013-04-01 23:34:00,
2013-04-01 19:49:00,28.9,14.0,30.10,WNW,298,11.0,-999.0,55,-99.99,,,0.00,weatherlink.com 1.10,2013-04-01 23:49:00,
2013-04-01 20:04:00,28.6,14.0,30.10,WNW,300,6.0,-999.0,55,-99.99,,,0.00,weatherlink.com 1.10,2013-04-02 00:04:00,
2013-04-01 20:19:00,28.2,15.0,30.10,WNW,288,8.0,-999.0,58,-99.99,,,0.00,weatherlink.com 1.10,2013-04-02 00:19:00,
2013-04-01 20:34:00,27.7,15.0,30.10,West,281,3.0,-999.0,59,-99.99,,,0.00,weatherlink.com 1.10,2013-04-02 00:34:00,
2013-04-01 20:49:00,27.1,16.0,30.10,West,277,4.0,-999.0,62,-99.99,,,0.00,weatherlink.com 1.10,2013-04-02 00:49:00,
2013-04-01 21:04:00,26.7,17.0,30.10,West,277,2.0,-999.0,66,-99.99,,,0.00,weatherlink.com 1.10,2013-04-02 01:04:00,
2013-04-01 21:19:00,26.2,17.0,30.11,West,277,2.0,-999.0,67,-99.99,,,0.00,weatherlink.com 1.10,2013-04-02 01:19:00,
2013-04-01 21:34:00,25.7,17.0,30.11,West,277,2.0,-999.0,69,-99.99,,,0.00,weatherlink.com 1.10,2013-04-02 01:34:00,
2013-04-01 21:49:00,25.4,17.0,30.11,West,277,0.0,-999.0,70,-99.99,,,0.00,weatherlink.com 1.10,2013-04-02 01:49:00,
2013-04-01 22:04:00,24.6,17.0,30.11,West,277,1.0,-999.0,74,-99.99,,,0.00,weatherlink.com 1.10,2013-04-02 02:04:00,
2013-04-01 22:19:00,23.9,18.0,30.12,West,277,2.0,-999.0,77,-99.99,,,0.00,weatherlink.com 1.10,2013-04-02 02:19:00,
2013-04-01 22:34:00,24.5,18.0,30.12,West,277,1.0,-999.0,76,-99.99,,,0.00,weatherlink.com 1.10,2013-04-02 02:34:00,
2013-04-01 22:49:00,22.7,17.0,30.12,West,277,2.0,-999.0,80,-99.99,,,0.00,weatherlink.com 1.10,2013-04-02 02:49:00,
2013-04-01 23:04:00,20.6,16.0,30.12,West,277,0.0,-999.0,83,-99.99,,,0.00,weatherlink.com 1.10,2013-04-02 03:04:00,
2013-04-01 23:19:00,22.0,17.0,30.12,West,275,5.0,-999.0,81,-99.99,,,0.00,weatherlink.com 1.10,2013-04-02 03:19:00,
2013-04-01 23:34:00,25.5,18.0,30.12,West,276,4.0,-999.0,73,-99.99,,,0.00,weatherlink.com 1.10,2013-04-02 03:34:00,
2013-04-01 23:49:00,27.2,20.0,30.12,WNW,289,4.0,-999.0,73,-99.99,,,0.00,weatherlink.com 1.10,2013-04-02 03:49:00,